Ocean Highway — H3IE — position and weather

sailwx.info

Track history (hours):
 
Tides and Currents Weather Stations Pressure Air Temp Water Temp Dewpoint Dewpoint Depression Visibility Wind Speed Wind Dir Waves Ship Positions

Ocean Highway

Last reported at 2016-Aug-19 02:25 UTC. Time now 2016-Aug-28 02:14 UTC.
Position N 01°16' E 104°11'.
Warning: this ship's position is 8 days out of date.

Length 179.1 m; beam 32.2 m.

Type: Cargo ship. MMSI: 353951000.

Date/timePositionNaut miles runAvg speedWind from/ knotsBaromVisibWave heightAir tempDewpointWater temp
2016-Aug-19 02:25N 01°16' E 104°11'1416.8
2016-Aug-19 01:34N 01°13' E 103°57'9 9.1
2016-Aug-19 00:34N 01°13' E 103°48'5 4.3
2016-Aug-18 23:29N 01°17' E 103°45'0 0.0
2016-Aug-18 22:29N 01°17' E 103°45'0 0.0
2016-Aug-18 21:29N 01°17' E 103°45'0 0.0
2016-Aug-18 20:29N 01°17' E 103°45'0 0.0
2016-Aug-18 19:29N 01°17' E 103°45'0 0.0
2016-Aug-18 18:29N 01°17' E 103°45'0 0.0
2016-Aug-18 17:23N 01°17' E 103°45'0 0.0
2016-Aug-18 16:29N 01°17' E 103°45'0 0.0
2016-Aug-18 15:23N 01°17' E 103°45'0 0.0
2016-Aug-18 14:23N 01°17' E 103°45'0 0.0
2016-Aug-18 13:08N 01°17' E 103°45'0 0.8
2016-Aug-18 12:33N 01°17' E 103°45'9 8.6
2016-Aug-18 11:33N 01°14' E 103°53'2 2.0
2016-Aug-18 10:32N 01°16' E 103°54'0 0.0
2016-Aug-18 09:32N 01°16' E 103°54'0 0.0
2016-Aug-18 08:26N 01°16' E 103°54'0 0.0
2016-Aug-18 07:32N 01°16' E 103°54'0 0.1
2016-Aug-18 06:32N 01°16' E 103°54'0 0.0
2016-Aug-18 04:32N 01°16' E 103°54'0 0.0
2016-Aug-18 03:32N 01°16' E 103°54'0 0.1
2016-Aug-18 02:23N 01°16' E 103°54'0 0.0
2016-Aug-18 01:08N 01°16' E 103°54'0 0.0
2016-Aug-18 00:29N 01°16' E 103°54'0 0.0
2016-Aug-17 23:29N 01°16' E 103°54'0 0.0
2016-Aug-17 22:32N 01°16' E 103°54'0 0.1
2016-Aug-17 21:32N 01°16' E 103°54'0 0.1
2016-Aug-17 20:26N 01°16' E 103°54'0 0.1
2016-Aug-17 19:32N 01°16' E 103°54'0 0.0
2016-Aug-17 18:33N 01°16' E 103°54'3 2.9
2016-Aug-17 17:33N 01°14' E 103°54'5 5.4
2016-Aug-17 16:33N 01°10' E 103°50'6 6.2
2016-Aug-17 15:31N 01°06' E 103°45'8211.5
2016-Aug-17 08:21N 01°46' E 102°33'1215.5
2016-Aug-17 07:33N 01°51' E 102°22'  
2016-Aug-09 04:33S 19°32' E 058°08'1515.4
2016-Aug-09 03:34S 19°39' E 057°53'1515.4
2016-Aug-09 02:34S 19°46' E 057°39'  
Track history (hours):
 
Tides and Currents Weather Stations Pressure Air Temp Water Temp Dewpoint Dewpoint Depression Visibility Wind Speed Wind Dir Waves Ship Positions

Ocean Highway

Last reported at 2016-Aug-19 02:25 UTC. Time now 2016-Aug-28 02:14 UTC.
Position N 01°16' E 104°11'.
Warning: this ship's position is 8 days out of date.

Length 179.1 m; beam 32.2 m.

Type: Cargo ship. MMSI: 353951000.

Date/timePositionNaut miles runAvg speedWind from/ knotsBaromVisibWave heightAir tempDewpointWater temp
2016-Aug-19 02:25N 01°16' E 104°11'1416.8
2016-Aug-19 01:34N 01°13' E 103°57'9 9.1
2016-Aug-19 00:34N 01°13' E 103°48'5 4.3
2016-Aug-18 23:29N 01°17' E 103°45'0 0.0
2016-Aug-18 22:29N 01°17' E 103°45'0 0.0
2016-Aug-18 21:29N 01°17' E 103°45'0 0.0
2016-Aug-18 20:29N 01°17' E 103°45'0 0.0
2016-Aug-18 19:29N 01°17' E 103°45'0 0.0
2016-Aug-18 18:29N 01°17' E 103°45'0 0.0
2016-Aug-18 17:23N 01°17' E 103°45'0 0.0
2016-Aug-18 16:29N 01°17' E 103°45'0 0.0
2016-Aug-18 15:23N 01°17' E 103°45'0 0.0
2016-Aug-18 14:23N 01°17' E 103°45'0 0.0
2016-Aug-18 13:08N 01°17' E 103°45'0 0.8
2016-Aug-18 12:33N 01°17' E 103°45'9 8.6
2016-Aug-18 11:33N 01°14' E 103°53'2 2.0
2016-Aug-18 10:32N 01°16' E 103°54'0 0.0
2016-Aug-18 09:32N 01°16' E 103°54'0 0.0
2016-Aug-18 08:26N 01°16' E 103°54'0 0.0
2016-Aug-18 07:32N 01°16' E 103°54'0 0.1
2016-Aug-18 06:32N 01°16' E 103°54'0 0.0
2016-Aug-18 04:32N 01°16' E 103°54'0 0.0
2016-Aug-18 03:32N 01°16' E 103°54'0 0.1
2016-Aug-18 02:23N 01°16' E 103°54'0 0.0
2016-Aug-18 01:08N 01°16' E 103°54'0 0.0
2016-Aug-18 00:29N 01°16' E 103°54'0 0.0
2016-Aug-17 23:29N 01°16' E 103°54'0 0.0
2016-Aug-17 22:32N 01°16' E 103°54'0 0.1
2016-Aug-17 21:32N 01°16' E 103°54'0 0.1
2016-Aug-17 20:26N 01°16' E 103°54'0 0.1
2016-Aug-17 19:32N 01°16' E 103°54'0 0.0
2016-Aug-17 18:33N 01°16' E 103°54'3 2.9
2016-Aug-17 17:33N 01°14' E 103°54'5 5.4
2016-Aug-17 16:33N 01°10' E 103°50'6 6.2
2016-Aug-17 15:31N 01°06' E 103°45'8211.5
2016-Aug-17 08:21N 01°46' E 102°33'1215.5
2016-Aug-17 07:33N 01°51' E 102°22'  
2016-Aug-09 04:33S 19°32' E 058°08'1515.4
2016-Aug-09 03:34S 19°39' E 057°53'1515.4
2016-Aug-09 02:34S 19°46' E 057°39'  

Dump ship's entire track history